sensor_id;sensor_type;location;lat;lon;timestamp;P1;durP1;ratioP1;P2;durP2;ratioP2
37205;SDS011;23099;42.636;23.198;2022-09-03T00:00:59;12.82;;;6.65;;
37205;SDS011;23099;42.636;23.198;2022-09-03T00:03:36;16.13;;;7.13;;
37205;SDS011;23099;42.636;23.198;2022-09-03T00:06:11;13.73;;;7.10;;
37205;SDS011;23099;42.636;23.198;2022-09-03T00:08:43;14.93;;;6.88;;
37205;SDS011;23099;42.636;23.198;2022-09-03T00:11:16;13.13;;;6.65;;
37205;SDS011;23099;42.636;23.198;2022-09-03T00:13:46;14.73;;;6.30;;
37205;SDS011;23099;42.636;23.198;2022-09-03T00:16:21;13.88;;;6.47;;
37205;SDS011;23099;42.636;23.198;2022-09-03T00:18:52;14.18;;;6.82;;
37205;SDS011;23099;42.636;23.198;2022-09-03T00:21:26;13.95;;;6.50;;
37205;SDS011;23099;42.636;23.198;2022-09-03T00:24:00;14.25;;;6.30;;
37205;SDS011;23099;42.636;23.198;2022-09-03T00:26:30;12.77;;;7.15;;
37205;SDS011;23099;42.636;23.198;2022-09-03T00:29:01;12.75;;;6.72;;
37205;SDS011;23099;42.636;23.198;2022-09-03T00:31:33;14.50;;;6.28;;
37205;SDS011;23099;42.636;23.198;2022-09-03T00:34:03;16.63;;;6.95;;
37205;SDS011;23099;42.636;23.198;2022-09-03T00:36:35;15.05;;;7.00;;
37205;SDS011;23099;42.636;23.198;2022-09-03T00:39:07;23.05;;;7.60;;
37205;SDS011;23099;42.636;23.198;2022-09-03T00:41:36;13.48;;;7.22;;
37205;SDS011;23099;42.636;23.198;2022-09-03T00:44:16;18.10;;;7.45;;
37205;SDS011;23099;42.636;23.198;2022-09-03T00:47:00;23.35;;;7.75;;
37205;SDS011;23099;42.636;23.198;2022-09-03T00:49:38;13.13;;;7.18;;
37205;SDS011;23099;42.636;23.198;2022-09-03T00:52:17;12.68;;;6.20;;
37205;SDS011;23099;42.636;23.198;2022-09-03T00:54:53;13.13;;;6.23;;
37205;SDS011;23099;42.636;23.198;2022-09-03T00:57:29;11.93;;;6.25;;
37205;SDS011;23099;42.636;23.198;2022-09-03T01:00:05;13.50;;;6.00;;
37205;SDS011;23099;42.636;23.198;2022-09-03T01:02:40;12.35;;;5.88;;
37205;SDS011;23099;42.636;23.198;2022-09-03T01:05:30;10.35;;;5.15;;
37205;SDS011;23099;42.636;23.198;2022-09-03T01:08:13;10.73;;;5.93;;
37205;SDS011;23099;42.636;23.198;2022-09-03T01:10:51;11.38;;;5.95;;
37205;SDS011;23099;42.636;23.198;2022-09-03T01:13:29;11.95;;;6.07;;
37205;SDS011;23099;42.636;23.198;2022-09-03T01:16:04;15.15;;;6.68;;
37205;SDS011;23099;42.636;23.198;2022-09-03T01:21:24;13.88;;;6.25;;
37205;SDS011;23099;42.636;23.198;2022-09-03T01:24:14;11.75;;;5.50;;
37205;SDS011;23099;42.636;23.198;2022-09-03T01:27:02;11.90;;;5.85;;
37205;SDS011;23099;42.636;23.198;2022-09-03T01:29:42;12.23;;;5.35;;
37205;SDS011;23099;42.636;23.198;2022-09-03T01:32:19;9.98;;;5.30;;
37205;SDS011;23099;42.636;23.198;2022-09-03T01:34:56;11.75;;;5.20;;
37205;SDS011;23099;42.636;23.198;2022-09-03T01:37:36;11.23;;;5.05;;
37205;SDS011;23099;42.636;23.198;2022-09-03T01:40:15;12.27;;;5.80;;
37205;SDS011;23099;42.636;23.198;2022-09-03T01:42:55;11.65;;;5.78;;
37205;SDS011;23099;42.636;23.198;2022-09-03T01:45:36;10.93;;;4.85;;
37205;SDS011;23099;42.636;23.198;2022-09-03T01:48:20;12.45;;;5.68;;
37205;SDS011;23099;42.636;23.198;2022-09-03T01:50:57;10.32;;;5.43;;
37205;SDS011;23099;42.636;23.198;2022-09-03T01:53:40;11.02;;;5.50;;
37205;SDS011;23099;42.636;23.198;2022-09-03T01:56:26;11.88;;;4.90;;
37205;SDS011;23099;42.636;23.198;2022-09-03T01:59:01;12.57;;;5.20;;
37205;SDS011;23099;42.636;23.198;2022-09-03T02:01:32;10.70;;;5.22;;
37205;SDS011;23099;42.636;23.198;2022-09-03T02:04:12;11.73;;;4.75;;
37205;SDS011;23099;42.636;23.198;2022-09-03T02:06:44;9.02;;;4.65;;
37205;SDS011;23099;42.636;23.198;2022-09-03T02:09:13;9.57;;;5.00;;
37205;SDS011;23099;42.636;23.198;2022-09-03T02:11:40;10.55;;;5.75;;
37205;SDS011;23099;42.636;23.198;2022-09-03T02:14:11;11.55;;;5.53;;
37205;SDS011;23099;42.636;23.198;2022-09-03T02:16:39;9.80;;;4.82;;
37205;SDS011;23099;42.636;23.198;2022-09-03T02:19:09;11.63;;;5.60;;
37205;SDS011;23099;42.636;23.198;2022-09-03T02:21:38;13.15;;;4.65;;
37205;SDS011;23099;42.636;23.198;2022-09-03T02:24:10;8.73;;;4.65;;
37205;SDS011;23099;42.636;23.198;2022-09-03T02:26:36;9.23;;;5.07;;
37205;SDS011;23099;42.636;23.198;2022-09-03T02:29:03;8.40;;;4.90;;
37205;SDS011;23099;42.636;23.198;2022-09-03T02:31:30;10.13;;;4.93;;
37205;SDS011;23099;42.636;23.198;2022-09-03T02:33:58;9.90;;;4.97;;
37205;SDS011;23099;42.636;23.198;2022-09-03T02:36:26;11.02;;;5.50;;
37205;SDS011;23099;42.636;23.198;2022-09-03T02:38:56;14.48;;;4.60;;
37205;SDS011;23099;42.636;23.198;2022-09-03T02:41:23;14.05;;;5.00;;
37205;SDS011;23099;42.636;23.198;2022-09-03T02:43:53;8.20;;;4.43;;
37205;SDS011;23099;42.636;23.198;2022-09-03T02:46:31;8.95;;;5.10;;
37205;SDS011;23099;42.636;23.198;2022-09-03T02:49:02;10.13;;;5.10;;
37205;SDS011;23099;42.636;23.198;2022-09-03T02:51:31;8.50;;;5.25;;
37205;SDS011;23099;42.636;23.198;2022-09-03T02:53:59;11.25;;;4.63;;
37205;SDS011;23099;42.636;23.198;2022-09-03T02:56:26;10.10;;;4.65;;
37205;SDS011;23099;42.636;23.198;2022-09-03T02:58:52;10.45;;;4.93;;
37205;SDS011;23099;42.636;23.198;2022-09-03T03:01:20;9.77;;;4.38;;
37205;SDS011;23099;42.636;23.198;2022-09-03T03:03:47;9.75;;;4.15;;
37205;SDS011;23099;42.636;23.198;2022-09-03T03:06:15;10.88;;;4.50;;
37205;SDS011;23099;42.636;23.198;2022-09-03T03:08:45;10.30;;;4.53;;
37205;SDS011;23099;42.636;23.198;2022-09-03T03:11:12;12.07;;;5.00;;
37205;SDS011;23099;42.636;23.198;2022-09-03T03:13:40;13.40;;;4.78;;
37205;SDS011;23099;42.636;23.198;2022-09-03T03:16:06;11.32;;;5.00;;
37205;SDS011;23099;42.636;23.198;2022-09-03T03:18:33;14.25;;;6.63;;
37205;SDS011;23099;42.636;23.198;2022-09-03T03:21:03;11.52;;;5.50;;
37205;SDS011;23099;42.636;23.198;2022-09-03T03:23:32;16.00;;;6.25;;
37205;SDS011;23099;42.636;23.198;2022-09-03T03:26:00;12.45;;;6.15;;
37205;SDS011;23099;42.636;23.198;2022-09-03T03:28:27;14.18;;;8.07;;
37205;SDS011;23099;42.636;23.198;2022-09-03T03:30:58;13.82;;;7.30;;
37205;SDS011;23099;42.636;23.198;2022-09-03T03:33:25;15.68;;;7.53;;
37205;SDS011;23099;42.636;23.198;2022-09-03T03:35:51;11.98;;;6.93;;
37205;SDS011;23099;42.636;23.198;2022-09-03T03:38:19;13.10;;;6.90;;
37205;SDS011;23099;42.636;23.198;2022-09-03T03:40:47;14.93;;;7.25;;
37205;SDS011;23099;42.636;23.198;2022-09-03T03:43:14;14.23;;;6.57;;
37205;SDS011;23099;42.636;23.198;2022-09-03T03:45:40;11.75;;;6.30;;
37205;SDS011;23099;42.636;23.198;2022-09-03T03:48:07;10.07;;;5.75;;
37205;SDS011;23099;42.636;23.198;2022-09-03T03:50:34;14.07;;;6.05;;
37205;SDS011;23099;42.636;23.198;2022-09-03T03:53:02;11.27;;;6.13;;
37205;SDS011;23099;42.636;23.198;2022-09-03T03:55:28;14.48;;;7.03;;
37205;SDS011;23099;42.636;23.198;2022-09-03T03:57:57;15.90;;;7.47;;
37205;SDS011;23099;42.636;23.198;2022-09-03T04:00:24;12.52;;;7.93;;
37205;SDS011;23099;42.636;23.198;2022-09-03T04:02:50;13.20;;;7.20;;
37205;SDS011;23099;42.636;23.198;2022-09-03T04:05:17;12.45;;;7.68;;
37205;SDS011;23099;42.636;23.198;2022-09-03T04:07:44;14.52;;;8.07;;
37205;SDS011;23099;42.636;23.198;2022-09-03T04:10:10;13.20;;;7.45;;
37205;SDS011;23099;42.636;23.198;2022-09-03T04:12:39;13.50;;;7.30;;
37205;SDS011;23099;42.636;23.198;2022-09-03T04:15:08;12.85;;;6.50;;
37205;SDS011;23099;42.636;23.198;2022-09-03T04:17:35;8.73;;;5.18;;
37205;SDS011;23099;42.636;23.198;2022-09-03T04:20:02;11.55;;;6.05;;
37205;SDS011;23099;42.636;23.198;2022-09-03T04:22:29;14.40;;;6.95;;
37205;SDS011;23099;42.636;23.198;2022-09-03T04:24:56;14.90;;;6.85;;
37205;SDS011;23099;42.636;23.198;2022-09-03T04:27:22;10.88;;;5.65;;
37205;SDS011;23099;42.636;23.198;2022-09-03T04:29:49;9.95;;;4.00;;
37205;SDS011;23099;42.636;23.198;2022-09-03T04:32:17;10.05;;;4.47;;
37205;SDS011;23099;42.636;23.198;2022-09-03T04:35:02;10.40;;;4.10;;
37205;SDS011;23099;42.636;23.198;2022-09-03T04:37:29;9.73;;;4.10;;
37205;SDS011;23099;42.636;23.198;2022-09-03T04:39:55;12.20;;;4.07;;
37205;SDS011;23099;42.636;23.198;2022-09-03T04:42:23;8.47;;;4.07;;
37205;SDS011;23099;42.636;23.198;2022-09-03T04:44:50;7.63;;;3.30;;
37205;SDS011;23099;42.636;23.198;2022-09-03T04:47:18;8.13;;;3.72;;
37205;SDS011;23099;42.636;23.198;2022-09-03T04:49:45;10.25;;;4.32;;
37205;SDS011;23099;42.636;23.198;2022-09-03T04:52:11;8.88;;;4.45;;
37205;SDS011;23099;42.636;23.198;2022-09-03T04:54:38;10.48;;;4.10;;
37205;SDS011;23099;42.636;23.198;2022-09-03T04:57:05;9.30;;;3.90;;
37205;SDS011;23099;42.636;23.198;2022-09-03T04:59:31;8.60;;;4.45;;
37205;SDS011;23099;42.636;23.198;2022-09-03T05:01:58;9.05;;;4.40;;
37205;SDS011;23099;42.636;23.198;2022-09-03T05:04:26;9.20;;;5.20;;
37205;SDS011;23099;42.636;23.198;2022-09-03T05:06:53;11.63;;;4.43;;
37205;SDS011;23099;42.636;23.198;2022-09-03T05:09:20;9.27;;;4.28;;
37205;SDS011;23099;42.636;23.198;2022-09-03T05:11:49;10.80;;;4.28;;
37205;SDS011;23099;42.636;23.198;2022-09-03T05:14:16;10.02;;;4.45;;
37205;SDS011;23099;42.636;23.198;2022-09-03T05:16:42;12.43;;;4.45;;
37205;SDS011;23099;42.636;23.198;2022-09-03T05:19:09;11.82;;;5.40;;
37205;SDS011;23099;42.636;23.198;2022-09-03T05:21:38;9.63;;;5.05;;
37205;SDS011;23099;42.636;23.198;2022-09-03T05:24:04;10.45;;;5.53;;
37205;SDS011;23099;42.636;23.198;2022-09-03T05:26:32;10.57;;;5.85;;
37205;SDS011;23099;42.636;23.198;2022-09-03T05:29:02;10.40;;;5.60;;
37205;SDS011;23099;42.636;23.198;2022-09-03T05:31:32;10.88;;;5.65;;
37205;SDS011;23099;42.636;23.198;2022-09-03T05:34:01;13.65;;;5.93;;
37205;SDS011;23099;42.636;23.198;2022-09-03T05:38:59;11.52;;;6.10;;
37205;SDS011;23099;42.636;23.198;2022-09-03T05:41:26;10.45;;;5.13;;
37205;SDS011;23099;42.636;23.198;2022-09-03T05:43:54;11.32;;;5.43;;
37205;SDS011;23099;42.636;23.198;2022-09-03T05:46:23;14.23;;;6.13;;
37205;SDS011;23099;42.636;23.198;2022-09-03T05:48:54;11.82;;;5.20;;
37205;SDS011;23099;42.636;23.198;2022-09-03T05:51:21;9.02;;;4.57;;
37205;SDS011;23099;42.636;23.198;2022-09-03T05:53:47;8.98;;;5.03;;
37205;SDS011;23099;42.636;23.198;2022-09-03T05:56:16;8.75;;;4.25;;
37205;SDS011;23099;42.636;23.198;2022-09-03T05:58:45;10.38;;;5.05;;
37205;SDS011;23099;42.636;23.198;2022-09-03T06:01:12;8.80;;;4.65;;
37205;SDS011;23099;42.636;23.198;2022-09-03T06:03:40;10.75;;;4.47;;
37205;SDS011;23099;42.636;23.198;2022-09-03T06:08:35;7.30;;;3.92;;
37205;SDS011;23099;42.636;23.198;2022-09-03T06:11:03;8.38;;;4.68;;
37205;SDS011;23099;42.636;23.198;2022-09-03T06:13:33;7.50;;;4.15;;
37205;SDS011;23099;42.636;23.198;2022-09-03T06:16:00;8.20;;;4.32;;
37205;SDS011;23099;42.636;23.198;2022-09-03T06:18:29;7.22;;;3.72;;
37205;SDS011;23099;42.636;23.198;2022-09-03T06:20:57;6.40;;;2.90;;
37205;SDS011;23099;42.636;23.198;2022-09-03T06:23:25;11.30;;;4.55;;
37205;SDS011;23099;42.636;23.198;2022-09-03T06:26:02;9.63;;;4.13;;
37205;SDS011;23099;42.636;23.198;2022-09-03T06:28:30;5.93;;;2.33;;
37205;SDS011;23099;42.636;23.198;2022-09-03T06:31:00;3.95;;;1.92;;
37205;SDS011;23099;42.636;23.198;2022-09-03T06:33:28;7.60;;;1.80;;
37205;SDS011;23099;42.636;23.198;2022-09-03T06:35:56;4.65;;;2.17;;
37205;SDS011;23099;42.636;23.198;2022-09-03T06:38:23;6.00;;;2.20;;
37205;SDS011;23099;42.636;23.198;2022-09-03T06:40:52;4.50;;;2.13;;
37205;SDS011;23099;42.636;23.198;2022-09-03T06:43:20;5.00;;;2.40;;
37205;SDS011;23099;42.636;23.198;2022-09-03T06:45:55;6.90;;;3.13;;
37205;SDS011;23099;42.636;23.198;2022-09-03T06:48:23;6.03;;;2.75;;
37205;SDS011;23099;42.636;23.198;2022-09-03T06:50:54;5.13;;;2.88;;
37205;SDS011;23099;42.636;23.198;2022-09-03T06:53:22;6.18;;;3.38;;
37205;SDS011;23099;42.636;23.198;2022-09-03T06:55:54;6.47;;;3.50;;
37205;SDS011;23099;42.636;23.198;2022-09-03T06:58:21;6.22;;;2.92;;
37205;SDS011;23099;42.636;23.198;2022-09-03T07:00:48;6.75;;;3.25;;
37205;SDS011;23099;42.636;23.198;2022-09-03T07:03:19;6.55;;;3.40;;
37205;SDS011;23099;42.636;23.198;2022-09-03T07:05:46;7.70;;;3.47;;
37205;SDS011;23099;42.636;23.198;2022-09-03T07:08:13;5.80;;;3.28;;
37205;SDS011;23099;42.636;23.198;2022-09-03T07:10:40;6.55;;;3.40;;
37205;SDS011;23099;42.636;23.198;2022-09-03T07:13:11;6.40;;;3.63;;
37205;SDS011;23099;42.636;23.198;2022-09-03T07:15:38;7.40;;;3.72;;
37205;SDS011;23099;42.636;23.198;2022-09-03T07:18:06;9.13;;;3.50;;
37205;SDS011;23099;42.636;23.198;2022-09-03T07:20:34;7.18;;;4.50;;
37205;SDS011;23099;42.636;23.198;2022-09-03T07:25:27;7.88;;;4.13;;
37205;SDS011;23099;42.636;23.198;2022-09-03T07:27:55;7.45;;;4.65;;
37205;SDS011;23099;42.636;23.198;2022-09-03T07:30:22;8.73;;;4.82;;
37205;SDS011;23099;42.636;23.198;2022-09-03T07:32:50;9.75;;;5.00;;
37205;SDS011;23099;42.636;23.198;2022-09-03T07:35:18;8.02;;;4.85;;
37205;SDS011;23099;42.636;23.198;2022-09-03T07:37:46;8.02;;;4.45;;
37205;SDS011;23099;42.636;23.198;2022-09-03T07:40:13;8.63;;;4.80;;
37205;SDS011;23099;42.636;23.198;2022-09-03T07:42:43;7.47;;;4.30;;
37205;SDS011;23099;42.636;23.198;2022-09-03T07:45:13;7.15;;;4.15;;
37205;SDS011;23099;42.636;23.198;2022-09-03T07:47:45;7.82;;;5.03;;
37205;SDS011;23099;42.636;23.198;2022-09-03T07:50:13;8.90;;;4.93;;
37205;SDS011;23099;42.636;23.198;2022-09-03T07:52:40;7.85;;;4.72;;
37205;SDS011;23099;42.636;23.198;2022-09-03T07:55:09;9.80;;;5.75;;
37205;SDS011;23099;42.636;23.198;2022-09-03T07:57:36;7.47;;;4.78;;
37205;SDS011;23099;42.636;23.198;2022-09-03T08:00:03;8.23;;;4.70;;
37205;SDS011;23099;42.636;23.198;2022-09-03T08:02:30;8.70;;;4.93;;
37205;SDS011;23099;42.636;23.198;2022-09-03T08:04:57;10.88;;;6.00;;
37205;SDS011;23099;42.636;23.198;2022-09-03T08:07:25;9.57;;;6.00;;
37205;SDS011;23099;42.636;23.198;2022-09-03T08:09:53;7.88;;;4.80;;
37205;SDS011;23099;42.636;23.198;2022-09-03T08:12:21;6.68;;;4.43;;
37205;SDS011;23099;42.636;23.198;2022-09-03T08:14:48;8.05;;;4.60;;
37205;SDS011;23099;42.636;23.198;2022-09-03T08:17:15;7.32;;;4.40;;
37205;SDS011;23099;42.636;23.198;2022-09-03T08:19:42;6.82;;;3.88;;
37205;SDS011;23099;42.636;23.198;2022-09-03T08:22:10;10.82;;;5.45;;
37205;SDS011;23099;42.636;23.198;2022-09-03T08:24:37;7.70;;;4.40;;
37205;SDS011;23099;42.636;23.198;2022-09-03T08:27:03;8.55;;;4.47;;
37205;SDS011;23099;42.636;23.198;2022-09-03T08:29:32;9.35;;;4.40;;
37205;SDS011;23099;42.636;23.198;2022-09-03T08:31:58;8.05;;;4.75;;
37205;SDS011;23099;42.636;23.198;2022-09-03T08:34:25;7.70;;;4.35;;
37205;SDS011;23099;42.636;23.198;2022-09-03T08:36:52;8.68;;;5.47;;
37205;SDS011;23099;42.636;23.198;2022-09-03T08:39:19;10.57;;;5.20;;
37205;SDS011;23099;42.636;23.198;2022-09-03T08:44:53;8.13;;;5.07;;
37205;SDS011;23099;42.636;23.198;2022-09-03T08:47:23;7.22;;;4.15;;
37205;SDS011;23099;42.636;23.198;2022-09-03T08:49:55;7.18;;;4.05;;
37205;SDS011;23099;42.636;23.198;2022-09-03T08:52:27;8.88;;;4.47;;
37205;SDS011;23099;42.636;23.198;2022-09-03T08:54:58;8.15;;;4.50;;
37205;SDS011;23099;42.636;23.198;2022-09-03T08:57:31;8.90;;;4.78;;
37205;SDS011;23099;42.636;23.198;2022-09-03T09:00:08;7.03;;;3.20;;
37205;SDS011;23099;42.636;23.198;2022-09-03T09:02:37;8.55;;;3.90;;
37205;SDS011;23099;42.636;23.198;2022-09-03T09:05:16;6.85;;;3.92;;
37205;SDS011;23099;42.636;23.198;2022-09-03T09:07:48;7.43;;;3.90;;
37205;SDS011;23099;42.636;23.198;2022-09-03T09:10:19;6.80;;;4.25;;
37205;SDS011;23099;42.636;23.198;2022-09-03T09:12:57;8.80;;;5.82;;
37205;SDS011;23099;42.636;23.198;2022-09-03T09:15:36;11.07;;;7.05;;
37205;SDS011;23099;42.636;23.198;2022-09-03T09:18:10;9.73;;;6.00;;
37205;SDS011;23099;42.636;23.198;2022-09-03T09:20:44;9.75;;;6.57;;
37205;SDS011;23099;42.636;23.198;2022-09-03T09:23:14;7.80;;;5.03;;
37205;SDS011;23099;42.636;23.198;2022-09-03T09:25:50;8.02;;;4.68;;
37205;SDS011;23099;42.636;23.198;2022-09-03T09:28:20;7.47;;;4.10;;
37205;SDS011;23099;42.636;23.198;2022-09-03T09:30:50;8.23;;;4.97;;
37205;SDS011;23099;42.636;23.198;2022-09-03T09:33:20;7.70;;;4.82;;
37205;SDS011;23099;42.636;23.198;2022-09-03T09:35:49;7.95;;;5.20;;
37205;SDS011;23099;42.636;23.198;2022-09-03T09:38:25;8.02;;;5.07;;
37205;SDS011;23099;42.636;23.198;2022-09-03T09:40:54;8.40;;;4.75;;
37205;SDS011;23099;42.636;23.198;2022-09-03T09:43:22;10.43;;;4.95;;
37205;SDS011;23099;42.636;23.198;2022-09-03T09:45:51;7.63;;;5.03;;
37205;SDS011;23099;42.636;23.198;2022-09-03T09:48:20;8.93;;;5.60;;
37205;SDS011;23099;42.636;23.198;2022-09-03T09:51:02;7.85;;;4.72;;
37205;SDS011;23099;42.636;23.198;2022-09-03T09:53:30;8.25;;;5.22;;
37205;SDS011;23099;42.636;23.198;2022-09-03T09:55:59;7.88;;;5.15;;
37205;SDS011;23099;42.636;23.198;2022-09-03T09:58:27;7.82;;;4.82;;
37205;SDS011;23099;42.636;23.198;2022-09-03T10:00:59;8.23;;;5.20;;
37205;SDS011;23099;42.636;23.198;2022-09-03T10:03:29;8.23;;;5.13;;
37205;SDS011;23099;42.636;23.198;2022-09-03T10:06:04;8.73;;;5.15;;
37205;SDS011;23099;42.636;23.198;2022-09-03T10:08:50;8.02;;;5.22;;
37205;SDS011;23099;42.636;23.198;2022-09-03T10:11:17;7.73;;;4.80;;
37205;SDS011;23099;42.636;23.198;2022-09-03T10:13:49;10.85;;;5.55;;
37205;SDS011;23099;42.636;23.198;2022-09-03T10:16:24;6.32;;;3.80;;
37205;SDS011;23099;42.636;23.198;2022-09-03T10:19:00;7.47;;;4.93;;
37205;SDS011;23099;42.636;23.198;2022-09-03T10:21:31;8.43;;;4.63;;
37205;SDS011;23099;42.636;23.198;2022-09-03T10:24:10;8.88;;;5.22;;
37205;SDS011;23099;42.636;23.198;2022-09-03T10:26:44;8.75;;;4.78;;
37205;SDS011;23099;42.636;23.198;2022-09-03T10:29:12;8.02;;;4.88;;
37205;SDS011;23099;42.636;23.198;2022-09-03T10:31:46;7.25;;;4.35;;
37205;SDS011;23099;42.636;23.198;2022-09-03T10:34:28;6.20;;;3.38;;
37205;SDS011;23099;42.636;23.198;2022-09-03T10:37:04;4.53;;;2.40;;
37205;SDS011;23099;42.636;23.198;2022-09-03T10:39:46;7.20;;;3.35;;
37205;SDS011;23099;42.636;23.198;2022-09-03T10:42:29;6.35;;;3.45;;
37205;SDS011;23099;42.636;23.198;2022-09-03T10:45:06;6.35;;;3.50;;
37205;SDS011;23099;42.636;23.198;2022-09-03T10:50:29;6.88;;;1.75;;
37205;SDS011;23099;42.636;23.198;2022-09-03T10:53:03;5.05;;;2.20;;
37205;SDS011;23099;42.636;23.198;2022-09-03T10:55:39;4.80;;;1.85;;
37205;SDS011;23099;42.636;23.198;2022-09-03T10:58:19;6.18;;;2.40;;
37205;SDS011;23099;42.636;23.198;2022-09-03T11:00:57;8.35;;;4.60;;
37205;SDS011;23099;42.636;23.198;2022-09-03T11:03:41;4.93;;;2.90;;
37205;SDS011;23099;42.636;23.198;2022-09-03T11:06:12;5.20;;;2.92;;
37205;SDS011;23099;42.636;23.198;2022-09-03T11:08:45;6.38;;;2.75;;
37205;SDS011;23099;42.636;23.198;2022-09-03T11:11:20;15.32;;;8.35;;
37205;SDS011;23099;42.636;23.198;2022-09-03T11:13:52;16.38;;;9.77;;
37205;SDS011;23099;42.636;23.198;2022-09-03T11:16:25;6.80;;;3.25;;
37205;SDS011;23099;42.636;23.198;2022-09-03T11:18:59;6.45;;;3.67;;
37205;SDS011;23099;42.636;23.198;2022-09-03T11:21:30;5.20;;;3.00;;
37205;SDS011;23099;42.636;23.198;2022-09-03T11:24:00;5.35;;;3.28;;
37205;SDS011;23099;42.636;23.198;2022-09-03T11:26:32;5.97;;;3.45;;
37205;SDS011;23099;42.636;23.198;2022-09-03T11:29:01;5.10;;;3.20;;
37205;SDS011;23099;42.636;23.198;2022-09-03T11:31:37;5.47;;;3.20;;
37205;SDS011;23099;42.636;23.198;2022-09-03T11:34:27;6.97;;;2.67;;
37205;SDS011;23099;42.636;23.198;2022-09-03T11:39:44;3.90;;;2.28;;
37205;SDS011;23099;42.636;23.198;2022-09-03T11:42:24;6.13;;;2.40;;
37205;SDS011;23099;42.636;23.198;2022-09-03T11:44:58;4.68;;;2.70;;
37205;SDS011;23099;42.636;23.198;2022-09-03T11:47:38;4.00;;;2.22;;
37205;SDS011;23099;42.636;23.198;2022-09-03T11:50:15;4.10;;;2.35;;
37205;SDS011;23099;42.636;23.198;2022-09-03T11:52:45;4.00;;;2.10;;
37205;SDS011;23099;42.636;23.198;2022-09-03T11:55:23;4.03;;;2.25;;
37205;SDS011;23099;42.636;23.198;2022-09-03T12:00:17;5.18;;;2.75;;
37205;SDS011;23099;42.636;23.198;2022-09-03T12:02:47;6.00;;;2.53;;
37205;SDS011;23099;42.636;23.198;2022-09-03T12:05:19;3.80;;;1.85;;
37205;SDS011;23099;42.636;23.198;2022-09-03T12:08:04;4.63;;;1.80;;
37205;SDS011;23099;42.636;23.198;2022-09-03T12:10:44;5.85;;;2.15;;
37205;SDS011;23099;42.636;23.198;2022-09-03T12:13:24;5.47;;;2.60;;
37205;SDS011;23099;42.636;23.198;2022-09-03T12:16:18;4.43;;;2.25;;
37205;SDS011;23099;42.636;23.198;2022-09-03T12:21:27;4.57;;;2.58;;
37205;SDS011;23099;42.636;23.198;2022-09-03T12:23:54;4.30;;;2.72;;
37205;SDS011;23099;42.636;23.198;2022-09-03T12:26:22;4.80;;;2.90;;
37205;SDS011;23099;42.636;23.198;2022-09-03T12:28:51;6.05;;;2.42;;
37205;SDS011;23099;42.636;23.198;2022-09-03T12:31:20;5.13;;;2.60;;
37205;SDS011;23099;42.636;23.198;2022-09-03T12:33:49;4.00;;;2.40;;
37205;SDS011;23099;42.636;23.198;2022-09-03T12:36:18;4.55;;;2.50;;
37205;SDS011;23099;42.636;23.198;2022-09-03T12:38:47;5.50;;;2.53;;
37205;SDS011;23099;42.636;23.198;2022-09-03T12:41:21;4.70;;;2.20;;
37205;SDS011;23099;42.636;23.198;2022-09-03T12:43:51;4.07;;;2.05;;
37205;SDS011;23099;42.636;23.198;2022-09-03T12:46:23;3.97;;;2.33;;
37205;SDS011;23099;42.636;23.198;2022-09-03T12:48:52;5.70;;;2.83;;
37205;SDS011;23099;42.636;23.198;2022-09-03T12:51:20;7.32;;;3.40;;
37205;SDS011;23099;42.636;23.198;2022-09-03T12:53:49;5.00;;;3.22;;
37205;SDS011;23099;42.636;23.198;2022-09-03T12:56:18;5.90;;;3.38;;
37205;SDS011;23099;42.636;23.198;2022-09-03T12:58:48;6.10;;;3.20;;
37205;SDS011;23099;42.636;23.198;2022-09-03T13:01:20;5.82;;;2.88;;
37205;SDS011;23099;42.636;23.198;2022-09-03T13:03:51;5.80;;;3.70;;
37205;SDS011;23099;42.636;23.198;2022-09-03T13:06:22;6.43;;;3.67;;
37205;SDS011;23099;42.636;23.198;2022-09-03T13:08:55;6.00;;;3.28;;
37205;SDS011;23099;42.636;23.198;2022-09-03T13:11:24;5.68;;;3.38;;
37205;SDS011;23099;42.636;23.198;2022-09-03T13:13:53;5.65;;;3.47;;
37205;SDS011;23099;42.636;23.198;2022-09-03T13:16:34;4.93;;;2.88;;
37205;SDS011;23099;42.636;23.198;2022-09-03T13:19:34;8.02;;;4.07;;
37205;SDS011;23099;42.636;23.198;2022-09-03T13:22:12;6.28;;;3.95;;
37205;SDS011;23099;42.636;23.198;2022-09-03T13:25:00;6.70;;;3.92;;
37205;SDS011;23099;42.636;23.198;2022-09-03T13:27:36;6.90;;;3.50;;
37205;SDS011;23099;42.636;23.198;2022-09-03T13:30:09;5.15;;;3.17;;
37205;SDS011;23099;42.636;23.198;2022-09-03T13:32:41;6.50;;;3.28;;
37205;SDS011;23099;42.636;23.198;2022-09-03T13:35:23;6.78;;;4.05;;
37205;SDS011;23099;42.636;23.198;2022-09-03T13:37:56;5.82;;;3.58;;
37205;SDS011;23099;42.636;23.198;2022-09-03T13:40:34;7.05;;;3.45;;
37205;SDS011;23099;42.636;23.198;2022-09-03T13:43:04;5.80;;;3.25;;
37205;SDS011;23099;42.636;23.198;2022-09-03T13:45:43;5.00;;;2.75;;
37205;SDS011;23099;42.636;23.198;2022-09-03T13:48:18;5.72;;;2.80;;
37205;SDS011;23099;42.636;23.198;2022-09-03T13:51:06;5.88;;;3.05;;
37205;SDS011;23099;42.636;23.198;2022-09-03T13:53:43;6.80;;;3.03;;
37205;SDS011;23099;42.636;23.198;2022-09-03T13:56:20;4.72;;;2.95;;
37205;SDS011;23099;42.636;23.198;2022-09-03T13:58:55;6.60;;;3.90;;
37205;SDS011;23099;42.636;23.198;2022-09-03T14:01:37;6.63;;;3.40;;
37205;SDS011;23099;42.636;23.198;2022-09-03T14:04:16;5.97;;;3.17;;
37205;SDS011;23099;42.636;23.198;2022-09-03T14:06:57;6.60;;;2.78;;
37205;SDS011;23099;42.636;23.198;2022-09-03T14:09:32;6.38;;;3.13;;
37205;SDS011;23099;42.636;23.198;2022-09-03T14:12:13;7.05;;;3.08;;
37205;SDS011;23099;42.636;23.198;2022-09-03T14:14:44;6.32;;;3.42;;
37205;SDS011;23099;42.636;23.198;2022-09-03T14:17:18;5.68;;;3.05;;
37205;SDS011;23099;42.636;23.198;2022-09-03T14:19:56;4.93;;;2.58;;
37205;SDS011;23099;42.636;23.198;2022-09-03T14:22:30;5.38;;;2.47;;
37205;SDS011;23099;42.636;23.198;2022-09-03T14:25:10;6.68;;;2.92;;
37205;SDS011;23099;42.636;23.198;2022-09-03T14:27:42;6.97;;;2.58;;
37205;SDS011;23099;42.636;23.198;2022-09-03T14:32:45;6.13;;;2.40;;
37205;SDS011;23099;42.636;23.198;2022-09-03T14:35:25;5.65;;;2.65;;
37205;SDS011;23099;42.636;23.198;2022-09-03T14:38:07;9.40;;;3.03;;
37205;SDS011;23099;42.636;23.198;2022-09-03T14:40:46;4.80;;;2.03;;
37205;SDS011;23099;42.636;23.198;2022-09-03T14:43:30;7.60;;;2.40;;
37205;SDS011;23099;42.636;23.198;2022-09-03T14:46:15;6.00;;;2.35;;
37205;SDS011;23099;42.636;23.198;2022-09-03T14:52:08;4.63;;;2.22;;
37205;SDS011;23099;42.636;23.198;2022-09-03T14:54:55;4.18;;;1.85;;
37205;SDS011;23099;42.636;23.198;2022-09-03T14:57:57;3.75;;;1.85;;
37205;SDS011;23099;42.636;23.198;2022-09-03T15:00:46;5.30;;;2.40;;
37205;SDS011;23099;42.636;23.198;2022-09-03T15:06:36;5.95;;;2.50;;
37205;SDS011;23099;42.636;23.198;2022-09-03T15:09:19;5.50;;;2.15;;
37205;SDS011;23099;42.636;23.198;2022-09-03T15:11:53;5.53;;;2.45;;
37205;SDS011;23099;42.636;23.198;2022-09-03T15:14:25;5.82;;;3.25;;
37205;SDS011;23099;42.636;23.198;2022-09-03T15:16:58;6.40;;;2.90;;
37205;SDS011;23099;42.636;23.198;2022-09-03T15:19:35;4.95;;;2.47;;
37205;SDS011;23099;42.636;23.198;2022-09-03T15:22:17;6.45;;;2.78;;
37205;SDS011;23099;42.636;23.198;2022-09-03T15:25:01;4.93;;;2.40;;
37205;SDS011;23099;42.636;23.198;2022-09-03T15:27:43;5.90;;;2.72;;
37205;SDS011;23099;42.636;23.198;2022-09-03T15:30:22;5.60;;;2.83;;
37205;SDS011;23099;42.636;23.198;2022-09-03T15:32:55;6.57;;;3.03;;